Barkersville, New York
Current Conditions -  °F | °C
As of 7:55 PM on Monday 24 Nov 2014 (Local Time) from KNY0 Reporting Station
Clear Clear  
Wind Chill: 61°   Ceiling: Unl
Heat Index: 61°   Visibility: 10mi
Dew Point: 47°   Wind: 15mph
Humidity: 62%   Direction: 220°SW
Pressure: 29.53"   Gusts: 20mph
Location:  43.1097°N, 74.0176°W
Report Text: KNY0 250055Z AUTO 22013G17KT 10SM CLR 16/09 A2953 RMK AO2 T01600086
Loading
Personal Weather Stations






























Interactive Weather Map New forecast layout! Learn more

10-Day Weather Forecast

Advertisements
Track Severe Weather on mobile